createdAt,value
2017-10-11T00:00:11.224Z,4.48
2017-10-11T00:01:21.211Z,4.57
2017-10-11T00:02:30.875Z,4.53
2017-10-11T00:03:40.870Z,4.52
2017-10-11T00:04:51.228Z,4.58
2017-10-11T00:06:00.884Z,4.64
2017-10-11T00:07:11.210Z,4.6
2017-10-11T00:08:21.532Z,4.61
2017-10-11T00:09:31.522Z,4.66
2017-10-11T00:10:41.517Z,4.68
2017-10-11T00:11:51.839Z,4.76
2017-10-11T00:13:02.159Z,4.71
2017-10-11T00:14:11.814Z,4.7
2017-10-11T00:15:21.829Z,4.74
2017-10-11T00:16:31.482Z,4.76
2017-10-11T00:17:41.148Z,4.76
2017-10-11T00:18:51.469Z,4.76
2017-10-11T00:20:00.792Z,4.74
2017-10-11T00:21:10.795Z,4.75
2017-10-11T00:22:20.784Z,4.64
2017-10-11T00:23:30.777Z,4.7
2017-10-11T00:24:40.762Z,4.66
2017-10-11T00:25:51.087Z,4.64
2017-10-11T00:27:01.407Z,4.58
2017-10-11T00:28:11.400Z,4.67
2017-10-11T00:29:21.735Z,4.61
2017-10-11T00:30:31.730Z,4.6
2017-10-11T00:31:41.726Z,4.64
2017-10-11T00:32:51.711Z,4.61
2017-10-11T00:34:02.045Z,4.61
2017-10-11T00:35:12.037Z,4.53
2017-10-11T00:36:22.027Z,4.48
2017-10-11T00:37:32.012Z,4.5
2017-10-11T00:38:41.999Z,4.57
2017-10-11T00:39:51.993Z,4.5
2017-10-11T00:41:02.317Z,4.48
2017-10-11T00:42:11.644Z,4.5
2017-10-11T00:43:21.634Z,4.49
2017-10-11T00:44:31.621Z,4.58
2017-10-11T00:45:41.955Z,4.56
2017-10-11T00:46:51.956Z,4.5
2017-10-11T00:48:02.281Z,4.56
2017-10-11T00:49:12.268Z,4.56
2017-10-11T00:50:22.259Z,4.5
2017-10-11T00:51:31.914Z,4.48
2017-10-11T00:52:42.252Z,4.48
2017-10-11T00:53:52.240Z,4.43
2017-10-11T00:55:02.239Z,4.4
2017-10-11T00:56:12.568Z,4.42
2017-10-11T00:57:22.565Z,4.58
2017-10-11T00:58:32.552Z,4.39
2017-10-11T00:59:42.544Z,4.4
2017-10-11T01:00:52.536Z,4.49
2017-10-11T01:02:02.534Z,4.49
2017-10-11T01:03:12.526Z,4.5
2017-10-11T01:04:22.875Z,4.46
2017-10-11T01:05:32.876Z,4.53
2017-10-11T01:06:42.543Z,4.42
2017-10-11T01:07:52.545Z,4.46
2017-10-11T01:09:02.868Z,4.53
2017-10-11T01:10:13.203Z,4.5
2017-10-11T01:11:23.540Z,4.43
2017-10-11T01:12:33.531Z,4.5
2017-10-11T01:13:43.557Z,4.42
2017-10-11T01:14:53.879Z,4.32
2017-10-11T01:16:04.205Z,4.32
2017-10-11T01:17:14.197Z,4.25
2017-10-11T01:18:23.850Z,4.28
2017-10-11T01:19:34.172Z,4.22
2017-10-11T01:20:44.166Z,4.16
2017-10-11T01:21:54.158Z,4.12
2017-10-11T01:23:03.820Z,4.14
2017-10-11T01:24:14.144Z,4.12
2017-10-11T01:25:24.136Z,4.02
2017-10-11T01:26:34.468Z,4
2017-10-11T01:27:44.476Z,3.99
2017-10-11T01:28:54.797Z,4.03
2017-10-11T01:30:04.791Z,3.95
2017-10-11T01:31:14.780Z,4
2017-10-11T01:32:24.434Z,4.02
2017-10-11T01:33:34.087Z,3.99
2017-10-11T01:34:44.073Z,3.91
2017-10-11T01:35:54.399Z,3.89
2017-10-11T01:37:04.392Z,3.89
2017-10-11T01:38:14.720Z,4.02
2017-10-11T01:39:24.405Z,3.95
2017-10-11T01:40:34.409Z,3.94
2017-10-11T01:41:44.737Z,3.82
2017-10-11T01:42:54.390Z,3.78
2017-10-11T01:44:04.056Z,3.76
2017-10-11T01:45:14.376Z,3.82
2017-10-11T01:46:24.696Z,3.82
2017-10-11T01:47:35.023Z,3.73
2017-10-11T01:48:45.016Z,3.71
2017-10-11T01:49:55.016Z,3.68
2017-10-11T01:51:05.341Z,3.66
2017-10-11T01:52:15.333Z,3.55
2017-10-11T01:53:25.665Z,3.66
2017-10-11T01:54:35.986Z,3.56
2017-10-11T01:55:46.306Z,3.53
2017-10-11T01:56:56.675Z,3.55
2017-10-11T01:58:06.690Z,3.52
2017-10-11T01:59:17.009Z,3.56
2017-10-11T02:00:26.998Z,3.49
2017-10-11T02:01:36.650Z,3.45
2017-10-11T02:02:46.976Z,3.45
2017-10-11T02:03:57.297Z,3.33
2017-10-11T02:05:07.388Z,3.34
2017-10-11T02:06:17.728Z,3.29
2017-10-11T02:07:28.066Z,3.26
2017-10-11T02:08:38.051Z,3.26
2017-10-11T02:09:48.371Z,3.15
2017-10-11T02:10:58.803Z,3.21
2017-10-11T02:12:08.452Z,3.24
2017-10-11T02:13:18.788Z,3.18
2017-10-11T02:14:29.109Z,3.15
2017-10-11T02:15:39.092Z,3.13
2017-10-11T02:16:49.079Z,3.11
2017-10-11T02:17:59.396Z,3.11
2017-10-11T02:19:09.047Z,3.13
2017-10-11T02:20:19.373Z,3.06
2017-10-11T02:21:29.706Z,3.12
2017-10-11T02:22:40.025Z,3.13
2017-10-11T02:23:50.348Z,3.15
2017-10-11T02:25:00.340Z,3.08
2017-10-11T02:26:10.332Z,3.03
2017-10-11T02:27:19.983Z,3.05
2017-10-11T02:28:30.305Z,3.05
2017-10-11T02:29:40.634Z,3.08
2017-10-11T02:30:50.626Z,3.12
2017-10-11T02:32:00.286Z,3.01
2017-10-11T02:33:10.287Z,3.01
2017-10-11T02:34:20.935Z,3
2017-10-11T02:35:30.930Z,3.06
2017-10-11T02:36:40.251Z,3
2017-10-11T02:37:50.585Z,3
2017-10-11T02:39:00.912Z,2.98
2017-10-11T02:40:10.573Z,2.95
2017-10-11T02:41:20.930Z,2.97
2017-10-11T02:42:30.921Z,2.97
2017-10-11T02:43:40.916Z,2.98
2017-10-11T02:44:51.262Z,3.01
2017-10-11T02:46:01.595Z,3.11
2017-10-11T02:47:11.255Z,3.01
2017-10-11T02:48:20.909Z,3.12
2017-10-11T02:49:30.900Z,3.03
2017-10-11T02:50:40.555Z,3.08
2017-10-11T02:51:50.880Z,3
2017-10-11T02:53:01.202Z,3.03
2017-10-11T02:54:11.190Z,3.03
2017-10-11T02:55:21.178Z,3.01
2017-10-11T02:56:31.192Z,2.97
2017-10-11T02:57:41.185Z,2.95
2017-10-11T02:58:51.502Z,2.98
2017-10-11T03:00:01.819Z,3.01
2017-10-11T03:01:12.149Z,3.06
2017-10-11T03:02:21.806Z,3.01
2017-10-11T03:03:31.126Z,2.97
2017-10-11T03:04:41.116Z,2.88
2017-10-11T03:05:51.438Z,2.98
2017-10-11T03:07:01.761Z,2.87
2017-10-11T03:08:12.084Z,2.91
2017-10-11T03:09:21.736Z,2.9
2017-10-11T03:10:31.755Z,2.83
2017-10-11T03:11:42.080Z,2.91
2017-10-11T03:12:52.071Z,2.87
2017-10-11T03:14:02.391Z,2.88
2017-10-11T03:15:12.379Z,2.85
2017-10-11T03:16:22.706Z,2.91
2017-10-11T03:17:32.730Z,2.73
2017-10-11T03:18:43.048Z,2.77
2017-10-11T03:19:53.378Z,2.76
2017-10-11T03:21:05.032Z,2.69
2017-10-11T03:22:15.023Z,2.7
2017-10-11T03:23:25.358Z,2.64
2017-10-11T03:24:35.354Z,2.69
2017-10-11T03:25:45.340Z,2.68
2017-10-11T03:26:55.329Z,2.59
2017-10-11T03:28:05.656Z,2.65
2017-10-11T03:29:15.306Z,2.64
2017-10-11T03:30:25.300Z,2.61
2017-10-11T03:31:35.290Z,2.52
2017-10-11T03:32:45.609Z,2.61
2017-10-11T03:33:55.597Z,2.57
2017-10-11T03:35:05.606Z,2.5
2017-10-11T03:36:15.933Z,2.52
2017-10-11T03:37:25.919Z,2.54
2017-10-11T03:38:35.569Z,2.54
2017-10-11T03:39:45.566Z,2.51
2017-10-11T03:40:55.556Z,2.52
2017-10-11T03:42:05.540Z,2.52
2017-10-11T03:43:15.547Z,2.61
2017-10-11T03:44:25.875Z,2.65
2017-10-11T03:45:35.863Z,2.57
2017-10-11T03:46:46.183Z,2.68
2017-10-11T03:47:56.169Z,2.69
2017-10-11T03:49:06.505Z,2.64
2017-10-11T03:50:16.832Z,2.62
2017-10-11T03:51:27.154Z,2.59
2017-10-11T03:52:36.807Z,2.73
2017-10-11T03:53:46.799Z,2.61
2017-10-11T03:54:57.116Z,2.7
2017-10-11T03:56:07.104Z,2.68
2017-10-11T03:57:17.098Z,2.68
2017-10-11T03:58:27.429Z,2.68
2017-10-11T03:59:37.078Z,2.62
2017-10-11T04:00:47.414Z,2.58
2017-10-11T04:01:57.406Z,2.61
2017-10-11T04:03:07.394Z,2.55
2017-10-11T04:04:17.711Z,2.55
2017-10-11T04:05:28.033Z,2.52
2017-10-11T04:06:38.353Z,2.59
2017-10-11T04:07:48.340Z,2.58
2017-10-11T04:08:58.663Z,2.55
2017-10-11T04:10:08.646Z,2.55
2017-10-11T04:11:18.294Z,2.52
2017-10-11T04:12:28.613Z,2.51
2017-10-11T04:13:38.265Z,2.55
2017-10-11T04:14:48.589Z,2.54
2017-10-11T04:15:58.925Z,2.52
2017-10-11T04:17:08.911Z,2.52
2017-10-11T04:18:19.240Z,2.57
2017-10-11T04:19:28.892Z,2.51
2017-10-11T04:20:38.881Z,2.5
2017-10-11T04:21:49.203Z,2.5
2017-10-11T04:22:59.199Z,2.5
2017-10-11T04:24:09.581Z,2.46
2017-10-11T04:25:19.561Z,2.46
2017-10-11T04:26:29.548Z,2.52
2017-10-11T04:27:39.871Z,2.5
2017-10-11T04:28:49.858Z,2.43
2017-10-11T04:30:00.179Z,2.41
2017-10-11T04:31:10.497Z,2.46
2017-10-11T04:32:20.487Z,2.44
2017-10-11T04:33:30.475Z,2.46
2017-10-11T04:34:40.793Z,2.47
2017-10-11T04:35:51.114Z,2.54
2017-10-11T04:37:01.110Z,2.55
2017-10-11T04:38:11.103Z,2.51
2017-10-11T04:39:21.091Z,2.54
2017-10-11T04:40:31.417Z,2.46
2017-10-11T04:41:41.746Z,2.59
2017-10-11T04:42:51.768Z,2.59
2017-10-11T04:44:02.095Z,2.55
2017-10-11T04:45:12.414Z,2.51
2017-10-11T04:46:22.734Z,2.57
2017-10-11T04:47:33.069Z,2.52
2017-10-11T04:48:43.396Z,2.5
2017-10-11T04:49:53.046Z,2.5
2017-10-11T04:51:03.368Z,2.47
2017-10-11T04:52:13.034Z,2.44
2017-10-11T04:53:22.694Z,2.57
2017-10-11T04:54:32.364Z,2.57
2017-10-11T04:55:42.685Z,2.47
2017-10-11T04:56:53.002Z,2.47
2017-10-11T04:58:02.653Z,2.43
2017-10-11T04:59:12.651Z,2.44
2017-10-11T05:00:22.641Z,2.37
2017-10-11T05:01:32.635Z,2.36
2017-10-11T05:02:42.626Z,2.41
2017-10-11T05:03:52.970Z,2.36
2017-10-11T05:05:03.285Z,2.33
2017-10-11T05:06:15.285Z,2.23
2017-10-11T05:07:25.295Z,2.22
2017-10-11T05:08:35.287Z,2.25
2017-10-11T05:09:45.610Z,2.37
2017-10-11T05:10:55.930Z,2.36
2017-10-11T05:12:05.923Z,2.33
2017-10-11T05:13:15.910Z,2.23
2017-10-11T05:14:26.232Z,2.26
2017-10-11T05:15:36.218Z,2.26
2017-10-11T05:16:46.216Z,2.32
2017-10-11T05:17:56.539Z,2.16
2017-10-11T05:19:06.694Z,2.18
2017-10-11T05:20:17.117Z,2.18
2017-10-11T05:21:27.159Z,2.26
2017-10-11T05:22:37.326Z,2.18
2017-10-11T05:23:47.659Z,2.19
2017-10-11T05:24:57.991Z,2.23
2017-10-11T05:26:07.654Z,2.22
2017-10-11T05:27:17.310Z,2.21
2017-10-11T05:28:27.311Z,2.15
2017-10-11T05:29:36.670Z,2.21
2017-10-11T05:30:46.989Z,2.16
2017-10-11T05:31:57.316Z,2.18
2017-10-11T05:33:07.639Z,2.19
2017-10-11T05:34:17.628Z,2.22
2017-10-11T05:35:27.955Z,2.16
2017-10-11T05:36:37.979Z,2.19
2017-10-11T05:37:48.296Z,2.12
2017-10-11T05:38:58.624Z,2.12
2017-10-11T05:40:08.949Z,2.14
2017-10-11T05:41:18.946Z,2.21
2017-10-11T05:42:28.964Z,2.21
2017-10-11T05:43:38.965Z,2.15
2017-10-11T05:44:49.283Z,2.19
2017-10-11T05:45:59.621Z,2.22
2017-10-11T05:47:09.272Z,2.23
2017-10-11T05:48:19.285Z,2.16
2017-10-11T05:49:29.271Z,2.28
2017-10-11T05:50:39.290Z,2.33
2017-10-11T05:51:49.607Z,2.25
2017-10-11T05:52:59.948Z,2.23
2017-10-11T05:54:10.269Z,2.26
2017-10-11T05:55:20.594Z,2.26
2017-10-11T05:56:30.592Z,2.43
2017-10-11T05:57:40.604Z,2.39
2017-10-11T05:58:50.594Z,2.36
2017-10-11T06:00:00.933Z,2.4
2017-10-11T06:01:10.944Z,2.39
2017-10-11T06:02:20.929Z,2.39
2017-10-11T06:03:31.251Z,2.41
2017-10-11T06:04:41.243Z,2.39
2017-10-11T06:05:51.229Z,2.4
2017-10-11T06:07:01.551Z,2.4
2017-10-11T06:08:11.544Z,2.43
2017-10-11T06:09:21.864Z,2.44
2017-10-11T06:10:31.853Z,2.43
2017-10-11T06:11:41.842Z,2.41
2017-10-11T06:12:52.163Z,2.43
2017-10-11T06:14:02.262Z,2.54
2017-10-11T06:15:12.004Z,2.52
2017-10-11T06:16:22.601Z,2.52
2017-10-11T06:17:32.588Z,2.51
2017-10-11T06:18:42.924Z,2.51
2017-10-11T06:19:52.910Z,2.51
2017-10-11T06:21:02.901Z,2.57
2017-10-11T06:22:12.904Z,2.61
2017-10-11T06:23:23.238Z,2.59
2017-10-11T06:24:33.230Z,2.61
2017-10-11T06:25:43.218Z,2.58
2017-10-11T06:26:52.876Z,2.61
2017-10-11T06:28:02.862Z,2.76
2017-10-11T06:29:13.188Z,2.77
2017-10-11T06:30:23.550Z,2.79
2017-10-11T06:31:33.877Z,2.91
2017-10-11T06:32:43.532Z,2.85
2017-10-11T06:33:53.525Z,2.88
2017-10-11T06:35:03.846Z,3
2017-10-11T06:36:13.834Z,2.94
2017-10-11T06:37:23.524Z,3.01
2017-10-11T06:38:33.512Z,3.12
2017-10-11T06:39:43.833Z,3.06
2017-10-11T06:40:53.820Z,3.05
2017-10-11T06:42:03.816Z,3.05
2017-10-11T06:43:14.151Z,3.05
2017-10-11T06:44:24.469Z,3.08
2017-10-11T06:45:34.815Z,3.08
2017-10-11T06:46:44.470Z,3.11
2017-10-11T06:47:54.807Z,3.19
2017-10-11T06:49:05.137Z,3.26
2017-10-11T06:50:15.142Z,3.3
2017-10-11T06:51:24.809Z,3.22
2017-10-11T06:52:34.831Z,3.31
2017-10-11T06:53:44.869Z,3.3
2017-10-11T06:54:55.197Z,3.31
2017-10-11T06:56:04.881Z,3.34
2017-10-11T06:57:15.132Z,3.33
2017-10-11T06:58:25.211Z,3.41
2017-10-11T06:59:35.196Z,3.36
2017-10-11T07:00:45.531Z,3.43
2017-10-11T07:01:55.527Z,3.48
2017-10-11T07:03:05.522Z,3.46
2017-10-11T07:04:15.843Z,3.43
2017-10-11T07:05:26.181Z,3.49
2017-10-11T07:06:35.506Z,3.49
2017-10-11T07:07:45.827Z,3.59
2017-10-11T07:08:55.833Z,3.61
2017-10-11T07:10:05.832Z,3.61
2017-10-11T07:11:15.821Z,3.64
2017-10-11T07:12:25.477Z,3.73
2017-10-11T07:13:35.465Z,3.74
2017-10-11T07:14:45.454Z,3.76
2017-10-11T07:15:55.106Z,3.84
2017-10-11T07:17:05.429Z,3.78
2017-10-11T07:18:15.414Z,3.84
2017-10-11T07:19:25.402Z,3.89
2017-10-11T07:20:35.393Z,3.95
2017-10-11T07:21:45.062Z,3.95
2017-10-11T07:22:55.082Z,3.94
2017-10-11T07:24:04.749Z,4.02
2017-10-11T07:25:14.737Z,4.06
2017-10-11T07:26:25.059Z,4.1
2017-10-11T07:27:35.048Z,4.07
2017-10-11T07:28:45.370Z,4.13
2017-10-11T07:29:55.692Z,4.2
2017-10-11T07:31:06.019Z,4.21
2017-10-11T07:32:14.673Z,4.31
2017-10-11T07:33:25.007Z,4.27
2017-10-11T07:34:35.000Z,4.4
2017-10-11T07:35:45.009Z,4.32
2017-10-11T07:36:55.363Z,4.32
2017-10-11T07:38:05.688Z,4.38
2017-10-11T07:39:15.687Z,4.45
2017-10-11T07:40:25.421Z,4.45
2017-10-11T07:41:35.433Z,4.4
2017-10-11T07:42:45.440Z,4.48
2017-10-11T07:43:55.801Z,4.43
2017-10-11T07:45:06.157Z,4.56
2017-10-11T07:46:16.540Z,4.49
2017-10-11T07:47:26.545Z,4.49
2017-10-11T07:48:36.546Z,4.48
2017-10-11T07:49:46.561Z,4.45
2017-10-11T07:50:56.908Z,4.4
2017-10-11T07:52:07.281Z,4.34
2017-10-11T07:53:16.955Z,4.46
2017-10-11T07:54:26.962Z,4.45
2017-10-11T07:55:36.631Z,4.56
2017-10-11T07:56:46.305Z,4.42
2017-10-11T07:57:56.646Z,4.5
2017-10-11T07:59:06.354Z,4.49
2017-10-11T08:00:16.371Z,4.61
2017-10-11T08:01:25.704Z,4.46
2017-10-11T08:02:35.710Z,4.46
2017-10-11T08:03:46.056Z,4.34
2017-10-11T08:04:56.075Z,4.32
2017-10-11T08:06:06.085Z,4.38
2017-10-11T08:07:16.093Z,4.3
2017-10-11T08:08:26.431Z,4.36
2017-10-11T08:09:36.775Z,4.4
2017-10-11T08:10:46.783Z,4.52
2017-10-11T08:11:56.791Z,4.52
2017-10-11T08:13:06.799Z,4.56
2017-10-11T08:14:17.134Z,4.64
2017-10-11T08:15:27.477Z,4.74
2017-10-11T08:16:37.486Z,4.61
2017-10-11T08:17:47.514Z,4.74
2017-10-11T08:18:57.518Z,4.7
2017-10-11T08:20:07.526Z,4.75
2017-10-11T08:21:17.544Z,4.86
2017-10-11T08:22:27.893Z,4.97
2017-10-11T08:23:38.229Z,5
2017-10-11T08:24:48.571Z,4.95
2017-10-11T08:25:58.575Z,4.95
2017-10-11T08:27:08.257Z,4.97
2017-10-11T08:28:18.269Z,4.95
2017-10-11T08:29:28.283Z,4.9
2017-10-11T08:30:38.294Z,4.79
2017-10-11T08:31:48.330Z,4.92
2017-10-11T08:32:57.986Z,5
2017-10-11T08:34:07.990Z,4.94
2017-10-11T08:35:18.004Z,4.97
2017-10-11T08:36:27.681Z,4.97
2017-10-11T08:37:38.051Z,4.97
2017-10-11T08:38:48.423Z,4.97
2017-10-11T08:39:58.762Z,5
2017-10-11T08:41:09.126Z,4.97
2017-10-11T08:42:18.460Z,4.92
2017-10-11T08:43:28.827Z,4.95
2017-10-11T08:44:39.185Z,4.9
2017-10-11T08:45:49.525Z,5
2017-10-11T08:46:59.882Z,5
2017-10-11T08:48:09.582Z,4.95
2017-10-11T08:49:19.254Z,4.97
2017-10-11T08:50:28.931Z,4.97
2017-10-11T08:51:38.609Z,4.79
2017-10-11T08:52:48.962Z,4.92
2017-10-11T08:53:58.975Z,5.01
2017-10-11T08:55:08.994Z,5.01
2017-10-11T08:56:19.001Z,5.01
2017-10-11T08:57:29.343Z,5.05
2017-10-11T08:58:39.700Z,5.02
2017-10-11T08:59:50.295Z,5.15
2017-10-11T09:01:00.639Z,5.16
2017-10-11T09:02:10.311Z,5.23
2017-10-11T09:04:44.910Z,5.26
2017-10-11T09:05:55.304Z,5.25
2017-10-11T09:07:05.651Z,5.22
2017-10-11T09:08:15.664Z,5.29
2017-10-11T09:09:25.673Z,5.29
2017-10-11T09:10:35.401Z,5.37
2017-10-11T09:11:45.412Z,5.41
2017-10-11T09:12:55.754Z,5.46
2017-10-11T09:14:05.772Z,5.49
2017-10-11T09:15:15.133Z,5.55
2017-10-11T09:16:25.536Z,5.58
2017-10-11T09:17:35.890Z,5.56
2017-10-11T09:18:45.903Z,5.52
2017-10-11T09:19:55.911Z,5.69
2017-10-11T09:21:05.252Z,5.67
2017-10-11T09:22:15.665Z,5.7
2017-10-11T09:23:25.686Z,5.73
2017-10-11T09:24:36.031Z,5.76
2017-10-11T09:25:45.724Z,5.77
2017-10-11T09:26:55.733Z,5.62
2017-10-11T09:28:05.409Z,5.58
2017-10-11T09:29:15.422Z,5.52
2017-10-11T09:30:25.766Z,5.69
2017-10-11T09:31:36.116Z,5.61
2017-10-11T09:32:46.467Z,5.67
2017-10-11T09:33:56.480Z,5.67
2017-10-11T09:35:06.487Z,5.65
2017-10-11T09:36:15.499Z,5.67
2017-10-11T09:37:25.839Z,5.69
2017-10-11T09:38:36.201Z,5.67
2017-10-11T09:39:45.873Z,5.77
2017-10-11T09:40:56.227Z,5.58
2017-10-11T09:42:05.912Z,5.56
2017-10-11T09:43:16.259Z,5.64
2017-10-11T09:44:26.281Z,5.65
2017-10-11T09:45:36.286Z,5.7
2017-10-11T09:46:46.630Z,5.58
2017-10-11T09:47:56.969Z,5.49
2017-10-11T09:49:07.310Z,5.41
2017-10-11T09:50:17.321Z,5.43
2017-10-11T09:51:27.668Z,5.31
2017-10-11T09:52:38.025Z,5.33
2017-10-11T09:53:48.368Z,5.31
2017-10-11T09:54:58.717Z,5.31
2017-10-11T09:56:09.061Z,5.46
2017-10-11T09:57:18.734Z,5.44
2017-10-11T09:58:29.078Z,5.49
2017-10-11T09:59:39.092Z,5.46
2017-10-11T10:00:49.104Z,5.55
2017-10-11T10:01:59.116Z,5.55
2017-10-11T10:03:09.123Z,5.67
2017-10-11T10:04:19.476Z,5.67
2017-10-11T10:05:29.484Z,5.79
2017-10-11T10:06:39.857Z,5.8
2017-10-11T10:07:49.868Z,5.83
2017-10-11T10:09:00.208Z,5.88
2017-10-11T10:10:10.216Z,5.8
2017-10-11T10:11:20.562Z,5.8
2017-10-11T10:12:30.568Z,5.73
2017-10-11T10:13:40.909Z,5.67
2017-10-11T10:14:51.248Z,5.65
2017-10-11T10:16:01.259Z,5.54
2017-10-11T10:17:10.598Z,5.55
2017-10-11T10:18:20.610Z,5.47
2017-10-11T10:19:30.960Z,5.52
2017-10-11T10:20:40.634Z,5.43
2017-10-11T10:21:50.309Z,5.51
2017-10-11T10:23:00.326Z,5.58
2017-10-11T10:24:10.335Z,5.49
2017-10-11T10:25:20.348Z,5.46
2017-10-11T10:26:30.690Z,5.47
2017-10-11T10:27:40.369Z,5.61
2017-10-11T10:28:50.711Z,5.55
2017-10-11T10:30:00.723Z,5.51
2017-10-11T10:31:10.120Z,5.61
2017-10-11T10:32:20.462Z,5.62
2017-10-11T10:33:30.133Z,5.8
2017-10-11T10:34:40.471Z,5.64
2017-10-11T10:35:50.484Z,5.64
2017-10-11T10:37:00.832Z,5.72
2017-10-11T10:38:11.180Z,5.67
2017-10-11T10:39:20.858Z,5.74
2017-10-11T10:40:30.873Z,5.65
2017-10-11T10:41:40.552Z,5.81
2017-10-11T10:42:50.900Z,5.84
2017-10-11T10:44:00.945Z,6.02
2017-10-11T10:45:10.966Z,5.91
2017-10-11T10:46:21.308Z,6.07
2017-10-11T10:47:31.663Z,6.12
2017-10-11T10:48:42.004Z,6.29
2017-10-11T10:49:52.019Z,6.31
2017-10-11T10:51:02.033Z,6.34
2017-10-11T10:52:12.391Z,6.26
2017-10-11T10:53:22.401Z,6.19
2017-10-11T10:54:32.748Z,6.07
2017-10-11T10:55:42.763Z,6.09
2017-10-11T10:56:52.438Z,6.22
2017-10-11T10:58:02.465Z,6.39
2017-10-11T10:59:12.482Z,6.38
2017-10-11T11:00:22.490Z,6.25
2017-10-11T11:01:32.220Z,6.32
2017-10-11T11:02:41.895Z,6.31
2017-10-11T11:03:51.911Z,6.41
2017-10-11T11:05:01.923Z,6.47
2017-10-11T11:06:12.280Z,6.5
2017-10-11T11:07:22.633Z,6.56
2017-10-11T11:08:32.648Z,6.64
2017-10-11T11:09:42.658Z,6.56
2017-10-11T11:10:52.331Z,6.67
2017-10-11T11:12:02.374Z,6.68
2017-10-11T11:13:12.736Z,6.83
2017-10-11T11:14:23.087Z,6.78
2017-10-11T11:15:33.433Z,6.75
2017-10-11T11:16:43.173Z,6.92
2017-10-11T11:17:52.945Z,6.95
2017-10-11T11:19:02.940Z,6.97
2017-10-11T11:20:12.937Z,7.1
2017-10-11T11:21:23.165Z,7.14
2017-10-11T11:22:33.091Z,7.14
2017-10-11T11:23:42.690Z,7.18
2017-10-11T11:24:52.742Z,7.23
2017-10-11T11:26:02.960Z,7.14
2017-10-11T11:27:13.166Z,7.18
2017-10-11T11:28:23.818Z,7.36
2017-10-11T11:29:34.509Z,7.23
2017-10-11T11:30:44.968Z,7.29
2017-10-11T11:31:54.506Z,7.23
2017-10-11T11:33:05.443Z,7.41
2017-10-11T11:34:14.227Z,7.36
2017-10-11T11:35:24.486Z,7.36
2017-10-11T11:36:34.353Z,7.4
2017-10-11T11:37:45.073Z,7.41
2017-10-11T11:38:55.476Z,7.51
2017-10-11T11:40:05.503Z,7.51
2017-10-11T11:41:15.851Z,7.56
2017-10-11T11:42:26.195Z,7.59
2017-10-11T11:43:36.548Z,7.55
2017-10-11T11:44:46.918Z,7.56
2017-10-11T11:45:56.957Z,7.56
2017-10-11T11:47:06.630Z,7.61
2017-10-11T11:48:16.976Z,7.67
2017-10-11T11:49:27.338Z,7.67
2017-10-11T11:50:37.349Z,7.67
2017-10-11T11:51:47.357Z,7.8
2017-10-11T11:52:57.706Z,7.74
2017-10-11T11:54:07.759Z,7.78
2017-10-11T11:55:18.113Z,7.8
2017-10-11T11:56:28.454Z,7.84
2017-10-11T11:57:38.804Z,7.83
2017-10-11T11:58:48.811Z,7.81
2017-10-11T11:59:58.483Z,7.78
2017-10-11T12:01:08.493Z,7.77
2017-10-11T12:02:18.499Z,7.77
2017-10-11T12:03:28.856Z,7.66
2017-10-11T12:04:38.868Z,7.77
2017-10-11T12:05:48.917Z,7.72
2017-10-11T12:06:58.934Z,7.64
2017-10-11T12:08:08.603Z,7.64
2017-10-11T12:09:18.614Z,7.67
2017-10-11T12:10:28.957Z,7.62
2017-10-11T12:11:38.963Z,7.56
2017-10-11T12:12:48.983Z,7.58
2017-10-11T12:13:59.339Z,7.59
2017-10-11T12:15:09.344Z,7.51
2017-10-11T12:16:19.015Z,7.48
2017-10-11T12:17:29.355Z,7.48
2017-10-11T12:18:39.703Z,7.51
2017-10-11T12:19:50.069Z,7.53
2017-10-11T12:21:00.419Z,7.5
2017-10-11T12:22:10.831Z,7.58
2017-10-11T12:23:20.175Z,7.46
2017-10-11T12:24:30.191Z,7.41
2017-10-11T12:25:40.539Z,7.46
2017-10-11T12:26:50.883Z,7.41
2017-10-11T12:28:01.224Z,7.19
2017-10-11T12:29:11.566Z,7.21
2017-10-11T12:30:21.910Z,7.15
2017-10-11T12:31:32.253Z,7.18
2017-10-11T12:32:42.266Z,7.14
2017-10-11T12:33:52.623Z,7.05
2017-10-11T12:35:02.975Z,7.03
2017-10-11T12:36:12.983Z,7.07
2017-10-11T12:37:22.994Z,7
2017-10-11T12:38:32.667Z,6.97
2017-10-11T12:39:42.676Z,6.87
2017-10-11T12:40:52.683Z,6.93
2017-10-11T12:42:03.022Z,6.87
2017-10-11T12:43:13.027Z,6.89
2017-10-11T12:44:22.700Z,6.92
2017-10-11T12:45:32.708Z,6.96
2017-10-11T12:46:42.717Z,6.9
2017-10-11T12:47:53.068Z,6.93
2017-10-11T12:49:03.076Z,6.9
2017-10-11T12:50:13.083Z,6.87
2017-10-11T12:51:23.457Z,6.87
2017-10-11T12:52:33.207Z,6.92
2017-10-11T12:53:43.217Z,6.96
2017-10-11T12:54:52.890Z,6.92
2017-10-11T12:56:03.236Z,6.95
2017-10-11T12:57:13.648Z,6.93
2017-10-11T12:58:23.652Z,6.92
2017-10-11T12:59:33.994Z,6.93
2017-10-11T13:00:43.668Z,6.9
2017-10-11T13:01:53.676Z,6.92
2017-10-11T13:03:04.034Z,6.9
2017-10-11T13:04:14.390Z,6.87
2017-10-11T13:05:24.769Z,6.9
2017-10-11T13:06:34.445Z,6.9
2017-10-11T13:07:44.784Z,6.95
2017-10-11T13:08:54.791Z,7.01
2017-10-11T13:10:05.135Z,7.08
2017-10-11T13:11:15.146Z,7.1
2017-10-11T13:12:25.511Z,7.04
2017-10-11T13:13:35.558Z,6.97
2017-10-11T13:14:45.900Z,6.89
2017-10-11T13:15:55.573Z,6.93
2017-10-11T13:17:05.602Z,6.87
2017-10-11T13:18:15.617Z,6.72
2017-10-11T13:19:25.289Z,6.72
2017-10-11T13:20:34.962Z,6.82
2017-10-11T13:21:44.970Z,6.8
2017-10-11T13:22:55.330Z,6.75
2017-10-11T13:24:05.342Z,6.72
2017-10-11T13:25:15.687Z,6.78
2017-10-11T13:26:26.064Z,6.74
2017-10-11T13:27:36.410Z,6.75
2017-10-11T13:28:46.414Z,6.71
2017-10-11T13:29:56.761Z,6.85
2017-10-11T13:31:07.119Z,6.8
2017-10-11T13:32:16.788Z,6.93
2017-10-11T13:33:27.128Z,6.89
2017-10-11T13:34:37.468Z,6.85
2017-10-11T13:35:47.473Z,6.85
2017-10-11T13:36:57.819Z,6.89
2017-10-11T13:38:08.162Z,6.9
2017-10-11T13:39:18.540Z,6.93
2017-10-11T13:40:28.280Z,6.8
2017-10-11T13:41:38.627Z,6.83
2017-10-11T13:42:48.977Z,6.8
2017-10-11T13:43:58.990Z,6.85
2017-10-11T13:45:09.035Z,6.83
2017-10-11T13:46:19.381Z,6.75
2017-10-11T13:47:29.408Z,6.78
2017-10-11T13:48:39.757Z,6.74
2017-10-11T13:49:49.765Z,6.71
2017-10-11T13:51:00.107Z,6.7
2017-10-11T13:52:10.119Z,6.7
2017-10-11T13:53:20.458Z,6.7
2017-10-11T13:54:30.470Z,6.6
2017-10-11T13:55:40.484Z,6.71
2017-10-11T13:56:50.832Z,6.6
2017-10-11T13:58:00.838Z,6.6
2017-10-11T13:59:11.190Z,6.6
2017-10-11T14:00:20.873Z,6.54
2017-10-11T14:01:30.915Z,6.56
2017-10-11T14:02:40.924Z,6.71
2017-10-11T14:03:51.274Z,6.7
2017-10-11T14:05:00.951Z,6.71
2017-10-11T14:06:10.963Z,6.6
2017-10-11T14:07:20.977Z,6.72
2017-10-11T14:08:31.325Z,6.71
2017-10-11T14:09:41.369Z,6.77
2017-10-11T14:10:51.718Z,6.72
2017-10-11T14:12:02.061Z,6.67
2017-10-11T14:13:11.736Z,6.74
2017-10-11T14:14:21.762Z,6.82
2017-10-11T14:15:32.107Z,6.83
2017-10-11T14:16:42.114Z,6.75
2017-10-11T14:17:51.790Z,6.83
2017-10-11T14:19:02.146Z,6.74
2017-10-11T14:20:12.512Z,6.77
2017-10-11T14:21:22.184Z,6.78
2017-10-11T14:22:32.529Z,6.74
2017-10-11T14:23:42.539Z,6.78
2017-10-11T14:24:52.878Z,6.68
2017-10-11T14:26:03.237Z,6.72
2017-10-11T14:27:13.598Z,6.78
2017-10-11T14:28:23.614Z,6.71
2017-10-11T14:29:33.621Z,6.72
2017-10-11T14:30:43.632Z,6.78
2017-10-11T14:31:53.648Z,6.7
2017-10-11T14:33:03.668Z,6.7
2017-10-11T14:34:13.674Z,6.71
2017-10-11T14:35:23.678Z,6.7
2017-10-11T14:36:33.348Z,6.71
2017-10-11T14:37:43.709Z,6.75
2017-10-11T14:38:54.063Z,6.77
2017-10-11T14:40:04.066Z,6.72
2017-10-11T14:41:14.411Z,6.72
2017-10-11T14:42:24.761Z,6.74
2017-10-11T14:43:35.103Z,6.74
2017-10-11T14:44:45.445Z,6.71
2017-10-11T14:45:55.794Z,6.72
2017-10-11T14:47:06.139Z,6.74
2017-10-11T14:48:16.489Z,6.74
2017-10-11T14:49:26.160Z,6.7
2017-10-11T14:50:36.171Z,6.72
2017-10-11T14:51:46.191Z,6.74
2017-10-11T14:52:56.534Z,6.68
2017-10-11T14:54:06.548Z,6.78
2017-10-11T14:55:16.924Z,6.7
2017-10-11T14:56:27.293Z,6.72
2017-10-11T14:57:37.296Z,6.7
2017-10-11T14:58:47.665Z,6.71
2017-10-11T14:59:58.004Z,6.71
2017-10-11T15:01:08.346Z,6.68
2017-10-11T15:02:18.366Z,6.7
2017-10-11T15:03:28.716Z,6.59
2017-10-11T15:04:38.722Z,6.62
2017-10-11T15:05:49.061Z,6.6
2017-10-11T15:06:58.734Z,6.68
2017-10-11T15:08:09.099Z,6.67
2017-10-11T15:09:19.120Z,6.59
2017-10-11T15:10:29.463Z,6.67
2017-10-11T15:11:39.802Z,6.67
2017-10-11T15:12:49.819Z,6.68
2017-10-11T15:13:59.826Z,6.74
2017-10-11T15:15:10.169Z,6.77
2017-10-11T15:16:20.513Z,6.77
2017-10-11T15:17:30.860Z,6.74
2017-10-11T15:18:41.208Z,6.72
2017-10-11T15:19:51.550Z,6.77
2017-10-11T15:21:01.901Z,6.71
2017-10-11T15:22:11.574Z,6.74
2017-10-11T15:23:21.913Z,6.75
2017-10-11T15:24:32.258Z,6.74
2017-10-11T15:25:42.612Z,6.57
2017-10-11T15:26:52.329Z,6.74
2017-10-11T15:28:02.349Z,6.74
2017-10-11T15:29:12.029Z,6.59
2017-10-11T15:30:22.227Z,6.68
2017-10-11T15:31:31.563Z,6.75
2017-10-11T15:32:41.234Z,6.71
2017-10-11T15:33:51.247Z,6.62
2017-10-11T15:35:01.583Z,6.57
2017-10-11T15:36:11.255Z,6.68
2017-10-11T15:37:21.608Z,6.64
2017-10-11T15:38:31.962Z,6.62